Timeline UpdatesTrip UpdatesNews PostsPvt PostsTravel TipsAdmin PostsConv PostsFollowed PostsChat RequestsBlog PostsPNR Posts

Disclaimer
Search
 
 
Wed Jul 23, 2014 15:23:53 ISTHomeTrainsΣChainsAtlasPNRForumGalleryNewsFAQTripsMembersLoginFeedback
No Recent News for this Train
Other Trains in the News **new
Latest...
12877 Ranchi-New Delhi Garib Rath Express will run o­n every Monday, Tuesday & Friday as against the existing days of run viz. Monday & Friday from 30.06.14
Fri Apr 25, 2014 (04:11PM)
⇐ Return Journey: Train# 12878

12877/Ranchi - New Delhi Garib Rath Express

May 19 2014 (8:59AM)
Change Departure Station:
Change Arrival Station:
Post a Train Travel TipPost a Train Travel Tip **new
Post a Comment/Question/Picture/VideoPost a Comment/Question/Picture/Video
Inaugural Run
Wed Jan 28, 2009
Pantry/Catering
✕ NO Pantry Car
✓ Catering Avbl
RSA - Rake Sharing
Rake/Coach Composition
LOCO-GD1-G1-G2-G3-G4-G5-G6-G7-G8-G9-G10-G11-G12-G13-G14-G15-G16-G17-G18-GD2
Loco
GZB WAP-4
News    PNR    Forum    Time-Table    Availability    Fare Chart    Map    Arr/Dep History    Trips    Gallery    ΣChains    X/O    Timeline    
Travel Time: 18h 10m    12 halts    Distance: 1341 km    Avg Speed: 73 km/hr
Type: Garib Rath
Zone: SER/South Eastern
Departs @ 16:40
Platform# 1
 MT  F 
Ranchi Junction/RNC 
Arrives @ 10:50 +1 night
Platform# 16
  TW  S
New Delhi/NDLS 

12 halts. 197 intermediate Stations between Ranchi Junction and New Delhi

Hide intermediate Stations  Show Old Time-Table

#CodeStation NameX/OArrivesAvgDepartsAvgHaltPFDay#KmSpeedElevZoneAddress
1RNC»Ranchi Junction (6)»  -16:40-110.058632mSERDiv HQ SER, Jharkhand
1.1NKMNamkom (3)X  16:44-16:44-  14.2 58618mSERRanchi, Jharkhand
1.2TISTatisilwai (3)  16:51-16:51-  110.7 58612mSERTatisilwai, Jharkhand
1.3GAGGangaghat (2)  16:59-16:59-  118.5 58543mSERState Highway 2, Jharkhand
1.4KWKCKherwa Kocha (1)  17:09-17:09-  127.6 58454mSERlepsar, Jharkhand
1.5JONJonha (1)  17:10-17:10-  129.0 58470mSERJohna, Jharkhand
1.6KITAKita (2)  17:27-17:27-  145.2 58323mSERState Highway 2, Jharkhand
1.7SLFSilli (3)  17:36-17:36-  153.6 58269mSERRanchi, Jharkhand
1.8MURIMuri Junction (3)  17:43-17:43-  160.1 58254mSER06522-222444, Jharkhand
1.9BLNGBarlanga (2)  17:53-17:53-  169.9 58272mSERGola Rd, West Bengal
1.10SNDSondimraX  17:58-17:58-  175.2 58290mSERGola Rd, West Bengal
1.11HRBRHarubera  18:06-18:06-  182.0 58320mSERRamgarh bypass, Jharkhand
1.12GREGola Road (1)  18:15-18:15-  190.9 58340mSERRamgarh bypass, Jharkhand
1.13BRKPBarkipona  18:22-18:22-  198.0 58355mSERChitarpur, Jharkhand
1.14MAELMael  18:25-18:25-  1101.1 58363mSERMael Railway Station, Jharkhand
1.15RMTRamgarh Cantt. (1)O  18:38-18:38-  1113.1 58352mSERRamgarh District, Jharkhand
1.16BRKABarkakana Junction (4)  18:44-18:44-  1118.5 58341mECR0653-255225, Jharkhand
1.17BHKDBhurkunda (1)  18:54-18:54-  1128.6 58363mECRRamgarh, Jharkhand
1.18PTRUPatratu (3)X  19:03-19:03-  1136.8 58373mECRDistt: Ramgarh, Jharkhand
1.19TKSTokisud  19:10-19:10-  1144.1 58373mECRKhakhra, Jharkhand
1.20HNDRHendegir  19:19-19:19-  1152.6 58397mECRBadam Rd, Jharkhand
1.21KOLEKole  19:28-19:28-  1161.0 58431mECRKeredari - Pachada Rd, Jharkhand
1.22RAYRay (2)  19:31-19:31-  1163.9 58447mECRRanchi, Jharkhand
1.23KLREKhalari (3)  19:41-19:41-  1173.0 58459mECRKhelari, Jharkhand
1.24MGMEMcCluskieGanj (3)  19:47-19:47-  1179.2 58476mECRPipra Toli, Jharkhand
1.25MMLNMahuamilan  19:57-19:57-  1188.4 58486mECRNational Highway 75, Jharkhand
2TORITori (2)  20:10-20:11-1m21201.375515mECRChandwa, Jharkhand
2.1CTQChetar  20:19-20:19-  1210.9 75479mECRNational Highway 75, Jharkhand
2.2RCGTRichughutu  20:25-20:25-  1219.1 75450mECRNational Highway 75, Jharkhand
2.3DEMUDemu  20:32-20:32-  1227.5 75414mECRNational Highway 75, Jharkhand
3LTHRLatehar (2)  20:37-20:38-1m--1233.762381mECRLatehar, Jharkhand
3.1BFQBendi  20:44-20:44-  1239.7 62370mECRNational Highway 75, Jharkhand
3.2KMNDKumendiX  20:51-20:51-  1247.5 62353mECRMatnagj, Jharkhand
3.3HHGHehegara Halt  21:00-21:00-  1257.1 62332mECRMatnagj, Jharkhand
3.4CPDRChhipadohar (2)  21:09-21:09-  1265.6 62339mECRChipadohar bypass, Jharkhand
3.5BRWDBarwadih Junction (3)  21:17-21:17-  1273.9 62295mECRDist. Latehar, Jharkhand
3.6MAZMangraX  21:24-21:24-  1281.5 62257mECRMangra, Jharkhand
3.7KCKIKechki  21:29-21:29-  1286.6 62250mECRKechki, Jharkhand
3.8CNFChianki  21:36-21:36-  1294.4 62237mECRNational Highway 75, Jharkhand
4DTODaltonGanj (3)  21:43-21:45-2m11301.344234mECR230812, Jharkhand
4.1KFTKajri (2)X  21:54-21:54-  1307.7 44216mECRBairia, Jharkhand
4.2RHRRajhura (2)X  22:09-22:09-  1319.0 44205mECRDist. Palamu, Jharkhand
4.3LBTLalgarh Bihar Halt (2)  22:15-22:15-  1323.5 44202mECRLalgarh, Jharkhand
4.4TRZTolra (2)  22:22-22:22-  1328.9 44192mECRPalamu, Jharkhand
5GHDGarhwa Road Junction (3)  22:30-22:35-5m11334.786188mECRPalamu, Jharkhand
5.1SQSSigsigi (2)  22:39-22:39-  1340.8 86181mECRJharkhand, Jharkhand
5.2KRTAKarkata  22:42-22:42-  1345.3 86174mECRPalamu, Jharkhand
5.3URDUntare Road (2)  22:46-22:46-  1351.0 86170mECRPalamu, Jharkhand
5.4SZFSatbahini  22:50-22:50-  1356.3 86161mECRJharkhand, Jharkhand
5.5MDJMuhammadGanj (2)  22:55-22:55-  1362.8 86160mECRJharkhand, Jharkhand
5.6KVQKosiara  22:59-22:59-  1369.5 86156mECRJharkhand, Jharkhand
5.7HDNHaidar Nagar (2)  23:03-23:03-  1374.7 86145mECRPalamu, Jharkhand
6JPLJapla (2)  23:08-23:09-1m--1381.773149mECRPalamu, Jharkhand
6.1KYFKajrat Nawadih  23:15-23:15-  1389.3 73143mECRTiwari Vigha Rd, Jharkhand
7NBGNabinagar Road (2)  23:22-23:23-1m--1397.564140mECRBihar, Bihar
7.1ANHAnkorah Akorha (3)O  23:36-23:36-  1411.7 64121mECRAurangabad, Bihar
7.2BSYABarkisalalya  23:38-23:38-  1413.4 64123mECRTilauthu, Bihar
7.3BCJBagahabishunpur (3)  23:44-23:44-  1419.8 64115mECRBagahabishunpur, Bihar
7.4SEBSon Nagar Junction (4)X  23:52-23:52-  1427.8 64110mECRBarun, Bihar
7.5ADSRADSR  23:56-23:56-  1432.6 64113mECRDehri, Bihar
8DOSDehri On Sone (6)  23:57-23:59-2m21433.571114mECRRohtas(06184-253154), Bihar
8.1PHEPahaleja Halt  00:03-00:03-  2438.0 71112mECRPahaleja, Bihar
8.2KWDKarwandia  00:08-00:08-  2444.6 71113mECRKarwandiya, Bihar
9SSMSasaram Junction (4)O  00:14-00:16-2m12451.289111mECR06184-222051, Bihar
9.1KMGEKumahu  00:21-00:21-  2459.1 89101mECRKamahu, Bihar
9.2SSGShiu Sagar Road  00:25-00:25-  2464.7 8999mECRShiu Sagar Rd, Bihar
9.3KVDKhurmabad Road  00:28-00:28-  2469.5 8993mECRKhurmabad, Bihar
9.4KTQKudra (2)  00:33-00:33-  2476.4 8992mECRKudra, Bihar
9.5PSEPusauli  00:39-00:39-  2485.4 8986mECRDistt: Rohtas, Bihar
9.6MTGEMuthani  00:44-00:44-  2493.3 8983mECRNational Highway 2, Bihar
10BBUBhabua Road (4)X  00:48-00:50-2m--2498.75780mECR06187-222222, Bihar
10.1DGODurgauti  00:59-00:59-  2507.7 5776mECRDistt Kaimur, Bihar
10.2DCXDhanaichha  01:05-01:05-  2513.1 5775mECRNational Highway 2, Bihar
10.3KMSKaramnasa  01:11-01:11-  2519.3 5778mECRNational Highway 2, Uttar Pradesh
10.4SYJSaidraja  01:20-01:20-  2527.5 5780mECRSaiyedraja, Uttar Pradesh
10.5CDMRChandauli MajhwarXO  01:29-01:29-  2535.9 5780mECRNational Highway 2, Uttar Pradesh
10.6GAQGanj Khawaja  01:38-01:38-  2544.5 5779mECRChandauli Mjhwr, Uttar Pradesh
10.7FOCMFlyover Cabin Mughal SaraiX  01:40-01:40-  2546.9 5780mECRChandauli Mjhwr, Uttar Pradesh
11MGSMughal Sarai Junction (8)X  01:47-01:57-10m--2553.38683mECRMughalsarai 232101, Uttar Pradesh
11.1NEWCNew West CabinX  01:58-01:58-  2554.5 8680mECRMughal Sarai, Uttar Pradesh
11.2JEPJeonathpur (3)X  02:02-02:02-  2561.2 8683mNCRVaranasi, Uttar Pradesh
11.3ARWAhraura Road (4)X  02:07-02:07-  2567.1 8685mNCRDist. Mirzapur - 231305, Uttar Pradesh
11.4KYTKailahat (4)  02:12-02:12-  2575.5 8683mNCRKailahat, Uttar Pradesh
11.5CARChunar Junction (5)  02:19-02:19-  2585.2 8685mNCRChunar Junction, Uttar Pradesh
11.6DAPDagmagpurX  02:24-02:24-  2592.6 8688mNCRDagmagpur, Uttar Pradesh
11.7PREPaharaX  02:30-02:30-  2600.7 8687mNCRNational Highway 7, Uttar Pradesh
11.8JHGJhingura  02:35-02:35-  2608.2 8685mNCRNational Highway 7, Uttar Pradesh
11.9MZPMirzapur (3)XO  02:41-02:41-  2616.5 8688mNCRMirzapur, Uttar Pradesh
11.10BDLVindhyachal (3)  02:46-02:46-  2623.8 8688mNCRMirzapur, Uttar Pradesh
11.11BEOBiroheX  02:49-02:49-  2628.5 8683mNCRNational Highway 76, Uttar Pradesh
11.12GAEGaipura (4)  02:54-02:54-  2636.1 8686mNCRGaipura, Uttar Pradesh
11.13JIAJigna (1)X  02:59-02:59-  2643.0 8694mNCRNational Highway 76, Uttar Pradesh
11.14MNFManda Road  03:05-03:05-  2651.3 8693mNCRNH 76, Uttar Pradesh
11.15UNDUnchdihX  03:11-03:11-  2659.4 8694mNCRUnchdih, Uttar Pradesh
11.16MJAMeja Road (4)  03:16-03:16-  2667.5 8694mNCRDistrict Allahabad, Uttar Pradesh
11.17BEPBheerpur  03:24-03:24-  2678.8 8694mNCRNH 76, Uttar Pradesh
11.18KCNKarchana  03:30-03:30-  2687.9 8694mNCRKarchana, Uttar Pradesh
11.19COIChheoki Junction (3)  03:37-03:37-  2696.9 8696mNCRDist.-Allahabad, Uttar Pradesh
11.20NYNNaini Junction (4)X  03:38-03:38-  2698.5 8698mNCRAllahabad, Uttar Pradesh
12ALDAllahabad Junction (10)XO  03:43-03:45-2m12706.097100mNCRAllahabad 211003, Uttar Pradesh
12.1SFGSubedarGanj (3)X  03:47-03:47-  2709.8 97100mNCRAllahabad, Uttar Pradesh
12.2BMUBamhrauli  03:50-03:50-  2714.8 97102mNCRAllahabad, Uttar Pradesh
12.3MREManauri  03:56-03:56-  2723.2 97105mNCRSabderganj-Fatehpur Rd, Uttar Pradesh
12.4SYWNSaiyid SarawanX  03:58-03:58-  2727.8 97106mNCR212203 ?, Uttar Pradesh
12.5MNJManoharGanj  04:03-04:03-  2735.2 97104mNCRNational Highway 2, Uttar Pradesh
12.6BREBharwari  04:08-04:08-  2743.1 97108mNCRBharwari, Uttar Pradesh
12.7BDNPBidanpurX  04:10-04:10-  2747.1 97106mNCRBidanpur, Uttar Pradesh
12.8SJTShujaatpur  04:14-04:14-  2753.4 97107mNCRNational Highway 2, Uttar Pradesh
12.9SROSirathu (2)X  04:20-04:20-  2763.2 97109mNCRSirathu, Uttar Pradesh
12.10ASCEAthsarai  04:24-04:24-  2769.6 97107mNCRAthsarai, Uttar Pradesh
12.11KUWKanwar  04:28-04:28-  2775.1 97110mNCRNational Highway 2, Uttar Pradesh
12.12KTCEKatoghanX  04:31-04:31-  2781.2 97109mNCRNational Highway 2, Uttar Pradesh
12.13KGAKhaga (3)  04:36-04:36-  2788.0 97114mNCRFatehpur, Uttar Pradesh
12.14SNIESath Naraini  04:40-04:40-  2795.5 97114mNCRNational Highway 2, Uttar Pradesh
12.15RUBRasulabadX  04:45-04:45-  2802.6 97118mNCRRasulabad, Uttar Pradesh
12.16FYZFaizullapur  04:50-04:50-  2811.7 97115mNCRFaizullapur, Uttar Pradesh
12.17RAMARamva  04:53-04:53-  2816.8 97116mNCRforcing detours between Kanpur and Varanasi, Uttar Pradesh
12.18FTPFatehpur (3)X  04:57-04:57-  2822.7 97120mNCRFatehpur, Uttar Pradesh
12.19KKSKurasti KalanX  05:01-05:01-  2829.8 97119mNCRJoniha Rd, Uttar Pradesh
12.20MWHMalwan (2)X  05:07-05:07-  2838.8 97122mNCRFatehpur, Uttar Pradesh
12.21KSQKanspur Gugauli  05:11-05:11-  2846.0 97124mNCRNational Highway 2, Uttar Pradesh
12.22BKOBindki Road  05:16-05:16-  2854.0 97124mNCRFatehpur, Uttar Pradesh
12.23AUNGAungX  05:20-05:20-  2859.9 97123mNCRNational Highway 2, Uttar Pradesh
12.24KBNKarbigwan  05:24-05:24-  2866.3 97121mNCRFatehpur, Uttar Pradesh
12.25PMPRPrempur  05:27-05:27-  2871.6 97125mNCRNational Highway 2, Uttar Pradesh
12.26SSLSirsaul (1)  05:31-05:31-  2877.8 97125mNCRKANPUR-209 402, Uttar Pradesh
12.27RXMRooma (2)  05:35-05:35-  2884.4 97125mNCRKANPUR-208 008, Uttar Pradesh
12.28CHKChakeri (2)  05:38-05:38-  2888.9 97126mNCRKANPUR-208 008, Uttar Pradesh
12.29CNBIChandari (2)  05:42-05:42-  2895.8 97125mNCRKanpur Cantt, Uttar Pradesh
13CNBKanpur Central (10)X  05:45-05:50-5m22900.388128mNCRKANPUR-208 001, Uttar Pradesh
13.1GMCKanpur Goods Marshalling Yard  05:51-05:51-  2901.6 88128mNCRKanpur-208 014, Uttar Pradesh
13.2CNJOJuhi Outer Cabin  05:52-05:52-  2903.2 88131mNCRKanpur, Uttar Pradesh
13.3CPNLKanpur C Panel  05:52-05:52-  2903.7 88127mNCRKanpur, Uttar Pradesh
13.4GOYGovindpuri Junction (2)  05:53-05:53-  2904.2 88129mNCRKANPUR-208 006, Uttar Pradesh
13.5PNKPanki (3)X  05:58-05:58-  2911.9 88129mNCRKANPUR-208 020, Uttar Pradesh
13.6BPUBhaupurX  06:05-06:05-  2923.0 88133mNCRKANPUR Dehat-209 307, Uttar Pradesh
13.7MTOMaitha  06:12-06:12-  2933.0 88235mNCRMDR 78C, Uttar Pradesh
13.8RMWRoshan Mau  06:15-06:15-  2937.0 88135mNCRRoshan Mau, Uttar Pradesh
13.9RURARura (4)  06:20-06:20-  2944.7 88137mNCRJhinjhak, Uttar Pradesh
13.10AAPAmbiapur  06:26-06:26-  2953.5 88140mNCRJhinjhak, Uttar Pradesh
13.11JJKJhinjhak (3)O  06:33-06:33-  2963.7 88140mNCRAuraiya, Uttar Pradesh
13.12PJYPara Jani Halt (1)  06:37-06:37-  2969.5 88139mNCRPara Jani, Uttar Pradesh
13.13KNSKanchausi (2)  06:41-06:41-  2974.6 88143mNCRState Highway 21, Uttar Pradesh
13.14PHDPhaphund (4)  06:47-06:47-  2983.5 88146mNCRdist. Auraiya, Uttar Pradesh
13.15PATAPata (3)  06:52-06:52-  2992.0 88143mNCRPhaphund, Uttar Pradesh
13.16ULDAchalda (3)  06:58-06:58-  21000.3 88147mNCRDist. Auraiya(05688-1072), Uttar Pradesh
13.17GHSRGhasara Halt (1)  07:02-07:02-  21005.8 88146mNCRPhaphund, Uttar Pradesh
13.18SHWSamhon (2)X  07:04-07:04-  21009.4 88144mNCRSamahon, Uttar Pradesh
13.19BNTBharthana (3)  07:11-07:11-  21019.8 88147mNCRBharthana, Uttar Pradesh
13.20EKLEkdil (2)  07:18-07:18-  21030.0 88150mNCRSarai Ikdil, Uttar Pradesh
13.21ETWEtawah (5)  07:25-07:25-  21039.7 88154mNCRDistt. Etawah, Uttar Pradesh
13.22SBSarai Bhopat (2)  07:31-07:31-  21048.0 88151mNCREtawah(05688-1072), Uttar Pradesh
13.23JGRJaswantnagar (2)  07:36-07:36-  21055.7 88154mNCRJaswantnagar, Uttar Pradesh
13.24BBLBalrai (3)X  07:42-07:42-  21064.4 88157mNCRBalrai, Uttar Pradesh
13.25BDNBhadan (2)X  07:49-07:49-  21075.1 88160mNCRFirozabad, Uttar Pradesh
13.26KAAKaurara (3)X  07:55-07:55-  21084.2 88160mNCRFirozabad Distt, Uttar Pradesh
13.27SKBShikohabad Junction (4)  08:03-08:03-  21095.1 88166mNCRDistrict Firozabad, Uttar Pradesh
13.28MNRMakkhanpur (2)X  08:09-08:09-  21105.0 88166mNCRNational Highway 2, Uttar Pradesh
13.29FZDFirozabad (4)  08:16-08:16-  21115.0 88164mNCRFirozabad, Uttar Pradesh
13.30HNGHirangaon (2)X  08:21-08:21-  21122.8 88166mNCRNational Highway 2, Uttar Pradesh
13.31TDLTundla Junction (5)X  08:27-08:27-  21131.5 88167mNCRDistt.Firozabad, Uttar Pradesh
13.32WSCShivarampur  08:30-08:30-  21135.0 88168mNCRShivarampur, Uttar Pradesh
13.33MTIMitawali (1)  08:32-08:32-  21138.4 88169mNCRMitawali, Uttar Pradesh
13.34BRNBarhan JunctionX  08:37-08:37-  21146.2 88173mNCRJN Point-Tundle/Aligarh/Etah, Uttar Pradesh
13.35CMRChamrola (1)O  08:42-08:42-  21153.0 88174mNCRMDR 106W, Uttar Pradesh
13.36JLSJalesar Road (1)XO  08:46-08:46-  21159.4 88172mNCRMDR 106W, Uttar Pradesh
13.37PORAPora (2)X  08:53-08:53-  21169.1 88179mNCRHathras, Uttar Pradesh
13.38HRSHathras Junction (3)  09:00-09:00-  21179.5 88183mNCRMahamaya Nagar(05722-242803), Uttar Pradesh
13.39SNSSasni (3)X  09:06-09:06-  21188.4 88185mNCRSasni, Uttar Pradesh
13.40MXKMandrak (2)X  09:11-09:11-  21195.8 88190mNCRNational Highway 93, Uttar Pradesh
13.41DAQDaud Khan (3)O  09:16-09:16-  21202.6 88189mNCRNational Highway 91, Uttar Pradesh
13.42ALJNAligarh Junction (4)X  09:21-09:21-  21209.7 88192mNCRAligarh, Uttar Pradesh
13.43MWUEMahrawal (2)  09:25-09:25-  21216.0 88189mNCRNational Highway 91, Uttar Pradesh
13.44KLAKulwa (2)  09:29-09:29-  21221.6 88190mNCRAligarh, Uttar Pradesh
13.45SOMSomna (2)  09:36-09:36-  21231.8 88195mNCRNational Highway 91, Uttar Pradesh
13.46DARDanwar (2)  09:43-09:43-  21242.0 88198mNCRDanwar, Uttar Pradesh
13.47KAMPKamalpur (2)  09:46-09:46-  21247.6 88195mNCRKamalpur, Uttar Pradesh
13.48KRJKhurja Junction (4)O  09:50-09:50-  21253.2 88199mNCRBulandshahr, Uttar Pradesh
13.49SKQSikandarpur (2)  09:54-09:54-  21258.8 88199mNCRMDR 70W, Uttar Pradesh
13.50GNRLGangraul (3)  09:57-09:57-  21263.6 88200mNCRMDR 70W, Uttar Pradesh
13.51CHLChola (3)  10:00-10:00-  21267.7 88204mNCRTahsil Bulandshahar, Uttar Pradesh
13.52WIRWair  10:03-10:03-  21272.6 88203mNCRBhati Harish Singh, Uttar Pradesh
13.53WAIRWair (2)  10:03-10:03-  21272.6 88203mNCRBulandshahr District, Uttar Pradesh
13.54DKDEDankaur (3)O  10:10-10:10-  21281.7 88209mNCRShyam Nagar Mandi, Uttar Pradesh
13.55AJRAjaibpur (2)X  10:15-10:15-  21289.9 88207mNCRGreater Noida, Uttar Pradesh
13.56BRKYBoraki (2)  10:18-10:18-  21294.8 88208mNCRNational Highway 91, Uttar Pradesh
13.57DERDadri (3)  10:21-10:21-  21299.1 88210mNCR203207, Uttar Pradesh
13.58MIUMaripat (2)O  10:26-10:26-  21305.8 88213mNCRNational Highway 91, Uttar Pradesh
13.59CYZChipyana Buzurg (1)  10:30-10:30-  21312.3 88209mNRGhaziabad, Uttar Pradesh
13.60GZBGhaziabad Junction (6)XO  10:33-10:33-  21315.8 88217mNRGhaziabad, Uttar Pradesh
13.61SBBSahibabad Junction (5)  10:38-10:38-  21323.1 88209mNRGhaziabad, Uttar Pradesh
13.62DSBPDelhi Shahdara B Panel  10:39-10:39-  21325.4 88206mNRGhaziabad, Uttar Pradesh
13.63CNJChander Nagar (2)O  10:40-10:40-  21326.8 88206mNRSahibabad Industrial Area Site 4, Uttar Pradesh
13.64ANVTDelhi Anand Vihar Terminal (3)  10:42-10:42-  21328.8 88208mNRGhazipur Road, Delhi NCT
13.65ANVRAnand Vihar (2)  10:42-10:42-  21328.9 88213mNRAnand Vihar, Delhi NCT
13.66MWCMandawali-Chander Vihar (2)O  10:44-10:44-  21332.4 88206mNRDelhi-110092, Delhi NCT
13.67TKJTilak Bridge (4)  10:48-10:48-  21338.7 88214mNRNew Delhi, Delhi NCT
13.68CSBShivaji Bridge (4)  10:49-10:49-  21340.0 88213mNRConnaught Place, Delhi NCT
14NDLS•New Delhi (16)•  10:50--1621341.1-215mNRNew Delhi, Delhi NCT
Scroll to Top
Scroll to Bottom